EGHH/BOH METAR and TAF weather

Enter ICAO airport designator
Station Type Date Time Source
EGHH METAR 2018/01/22 19:50 UTC NOAA

EGHH 221950Z 23007KT 9999 BKN030 09/05 Q1019


Station Type Date Time Source
EGHH Decoded METAR 2018/01/22 19:50 UTC NOAA

Bournemouth Airport, United Kingdom (EGHH) 50-47N 001-50W 0M
Jan 22, 2018 - 02:50 PM EST / 2018.01.22 1950 UTC
Wind: from the SW (230 degrees) at 8 MPH (7 KT):0
Visibility: greater than 7 mile(s):0
Sky conditions: mostly cloudy
Temperature: 48 F (9 C)
Dew Point: 41 F (5 C)
Relative Humidity: 75%
Pressure (altimeter): 30.09 in. Hg (1019 hPa)
ob: EGHH 221950Z 23007KT 9999 BKN030 09/05 Q1019
cycle: 20

Station Type Date Time Source
EGHH TAF 2013/12/01 21:21 UTC NOAA

TAF TAF EGHH 010016Z 3021/0106 CNL


Example: see airport list